Impacts TAF Board INFO
FOR SITUATIONAL AWARENESS. NOT TO BE USED FOR FLIGHT PLANNING PURPOSES.
IDs:

KMEM - Memphis Intl, TN, US

Issued at 0903 UTC 19 Jul 2018
Updated at 0948 UTC 19 Jul 2018
Potential Impact None Slight Moderate High
Time<<19/22Z 19/23Z 20/00Z 20/01Z 20/02Z 20/03Z 20/04Z 20/05Z 20/06Z 20/07Z 20/08Z 20/09Z 20/10Z>>
Type PRVL PRVL PRVL PRVL PRVL PRVL PRVL PRVL PRVL PRVL PRVL PRVL PRVL
VIS >6 >6 >6 >6 >6 >6 >6 >6 >6 >6 >6 >6 >6
CIG 150 150 150 150 250 250 250 250 250 250 250 250 250
Cover BKN BKN BKN BKN BKN BKN BKN BKN BKN BKN BKN BKN BKN
FltCat VFR VFR VFR VFR VFR VFR VFR VFR VFR VFR VFR VFR VFR
WX VCTS VCTS VCTS VCTS VCSH VCSH VCSH VCSH VCSH VCSH VCSH VCSH VCSH
WDir VRB VRB VRB VRB 170 170 170 170 170 170 170 170 170
WSpd 10 10 10 10 5 5 5 5 5 5 5 5 5
WGst 15 15 15 15 -- -- -- -- -- -- -- -- --

Raw TAF
KMEM 190903Z 1909/2012 12006KT P6SM SCT090 SCT150
  FM191700 19007KT P6SM SCT045 SCT250
  FM192200 VRB10G15KT P6SM VCTS SCT045CB BKN150
  FM200200 17005KT P6SM VCSH SCT050 BKN250


METAR Board
Radar Display
Forecast Discussion

FOR SITUATIONAL AWARENESS. NOT TO BE USED FOR FLIGHT PLANNING PURPOSES.